Time;durP1;ratioP1;P1;durP2;ratioP2;P2;SDS_P1;SDS_P2;PMS_P1;PMS_P2;Temp;Humidity;BMP_temperature;BMP_pressure;BME280_temperature;BME280_humidity;BME280_pressure;Samples;Min_cycle;Max_cycle;Signal;HPM_P1;HPM_P2
2024/03/26 00:02:01;;;;;;;3.65;2.78;;;3.80;99.90;;;;;;4962945;28;20103;-75
2024/03/26 00:04:27;;;;;;;3.70;2.90;;;3.80;99.90;;;;;;4964177;28;20114;-75
2024/03/26 00:06:53;;;;;;;4.32;2.38;;;3.70;99.90;;;;;;4963146;28;20052;-74
2024/03/26 00:09:19;;;;;;;3.72;2.45;;;3.70;99.90;;;;;;4961220;28;20039;-75
2024/03/26 00:11:44;;;;;;;2.88;2.08;;;3.70;99.90;;;;;;4965584;28;20082;-75
2024/03/26 00:14:10;;;;;;;4.10;2.55;;;3.60;99.90;;;;;;4964922;28;20091;-76
2024/03/26 00:16:35;;;;;;;3.28;2.40;;;3.50;99.90;;;;;;4967510;28;20035;-75
2024/03/26 00:19:01;;;;;;;3.85;2.40;;;3.50;99.90;;;;;;4962161;28;20059;-74
2024/03/26 00:21:27;;;;;;;2.88;2.22;;;3.40;99.90;;;;;;4965080;28;20039;-75
2024/03/26 00:23:52;;;;;;;4.00;2.90;;;3.40;99.90;;;;;;4965415;28;20027;-76
2024/03/26 00:26:18;;;;;;;3.47;2.63;;;3.40;99.90;;;;;;4972621;28;20073;-76
2024/03/26 00:28:43;;;;;;;3.15;2.35;;;3.20;99.90;;;;;;4963800;28;21562;-76
2024/03/26 00:31:09;;;;;;;4.15;2.83;;;3.20;99.90;;;;;;4962937;28;20047;-75
2024/03/26 00:33:34;;;;;;;4.65;2.72;;;3.20;99.90;;;;;;4965640;28;20039;-76
2024/03/26 00:36:00;;;;;;;6.20;2.90;;;3.30;99.90;;;;;;4969706;28;20443;-76
2024/03/26 00:38:25;;;;;;;6.63;3.47;;;3.30;99.90;;;;;;4957392;28;20081;-72
2024/03/26 00:40:51;;;;;;;4.30;3.25;;;3.20;99.90;;;;;;4957923;28;20030;-72
2024/03/26 00:43:17;;;;;;;3.00;2.72;;;3.20;99.90;;;;;;4956669;28;20094;-72
2024/03/26 00:45:43;;;;;;;4.00;2.97;;;3.10;99.90;;;;;;4954921;29;20039;-71
2024/03/26 00:48:09;;;;;;;3.13;2.30;;;3.20;99.90;;;;;;4960991;28;20107;-75
2024/03/26 00:50:35;;;;;;;3.90;2.72;;;3.20;99.90;;;;;;4961937;28;21797;-75
2024/03/26 00:53:00;;;;;;;4.32;2.42;;;3.20;99.90;;;;;;4958872;28;20112;-74
2024/03/26 00:55:26;;;;;;;2.95;2.50;;;3.30;99.90;;;;;;4961532;28;20046;-75
2024/03/26 00:57:51;;;;;;;3.10;2.50;;;3.30;99.90;;;;;;4958847;28;20042;-76
2024/03/26 01:00:17;;;;;;;5.18;3.22;;;3.20;99.90;;;;;;4958919;28;20485;-75
2024/03/26 01:02:42;;;;;;;4.85;3.20;;;3.20;99.90;;;;;;4957291;28;20051;-75
2024/03/26 01:05:08;;;;;;;2.60;2.40;;;3.10;99.90;;;;;;4949153;28;20122;-75
2024/03/26 01:07:34;;;;;;;4.53;3.03;;;3.10;99.90;;;;;;4958098;28;20086;-75
2024/03/26 01:09:59;;;;;;;3.67;2.97;;;3.10;99.90;;;;;;4960188;28;20027;-76
2024/03/26 01:12:25;;;;;;;3.53;2.67;;;3.10;99.90;;;;;;4964572;28;20023;-75
2024/03/26 01:14:50;;;;;;;5.80;2.65;;;3.10;99.90;;;;;;4960914;28;20078;-77
2024/03/26 01:17:16;;;;;;;5.38;3.03;;;3.20;99.90;;;;;;4960795;28;20055;-76
2024/03/26 01:19:42;;;;;;;3.95;2.65;;;3.10;99.90;;;;;;4967114;28;20027;-76
2024/03/26 01:22:07;;;;;;;3.95;3.00;;;3.00;99.90;;;;;;4965231;28;20042;-77
2024/03/26 01:24:33;;;;;;;4.03;2.80;;;2.90;99.90;;;;;;4966591;28;20039;-76
2024/03/26 01:26:58;;;;;;;4.75;2.95;;;2.80;99.90;;;;;;4962576;28;20031;-77
2024/03/26 01:29:24;;;;;;;2.65;2.42;;;2.70;99.90;;;;;;4961080;28;20038;-74
2024/03/26 01:31:49;;;;;;;3.20;2.45;;;2.80;99.90;;;;;;4961219;28;20043;-76
2024/03/26 01:34:18;;;;;;;4.18;2.58;;;2.90;99.90;;;;;;4964294;28;20027;-75
2024/03/26 01:36:45;;;;;;;4.13;2.85;;;2.90;99.90;;;;;;4961121;28;20035;-75
2024/03/26 01:39:11;;;;;;;3.10;2.65;;;2.90;99.90;;;;;;4968186;28;20053;-75
2024/03/26 01:41:38;;;;;;;3.13;2.63;;;2.90;99.90;;;;;;4962427;28;20117;-76
2024/03/26 01:44:04;;;;;;;4.47;2.78;;;2.80;99.90;;;;;;4966680;28;20062;-75
2024/03/26 01:46:31;;;;;;;2.28;2.08;;;2.80;99.90;;;;;;4966738;28;20039;-75
2024/03/26 01:48:57;;;;;;;3.03;2.15;;;2.80;99.90;;;;;;4951847;28;20036;-72
2024/03/26 01:51:22;;;;;;;2.58;2.38;;;2.70;99.90;;;;;;4957006;28;20603;-72
2024/03/26 01:53:48;;;;;;;4.40;2.70;;;2.70;99.90;;;;;;4961445;28;20118;-72
2024/03/26 01:56:17;;;;;;;2.60;2.35;;;2.60;99.90;;;;;;4960568;29;20019;-72
2024/03/26 01:58:44;;;;;;;4.60;2.83;;;2.60;99.90;;;;;;4960465;28;20938;-71
2024/03/26 02:01:11;;;;;;;3.25;2.40;;;2.50;99.90;;;;;;4959681;28;20070;-73
2024/03/26 02:03:37;;;;;;;4.82;2.85;;;2.50;99.90;;;;;;4961133;28;20035;-71
2024/03/26 02:06:03;;;;;;;3.03;2.28;;;2.40;99.90;;;;;;4979541;28;20042;-71
2024/03/26 02:08:30;;;;;;;6.15;2.70;;;2.30;99.90;;;;;;4959283;28;20368;-72
2024/03/26 02:10:56;;;;;;;3.28;2.50;;;2.20;99.90;;;;;;4960679;28;20035;-72
2024/03/26 02:13:22;;;;;;;2.67;2.28;;;2.10;99.90;;;;;;4955627;28;20079;-71
2024/03/26 02:15:48;;;;;;;4.25;3.67;;;2.20;99.90;;;;;;4957786;28;20031;-72
2024/03/26 02:18:13;;;;;;;4.93;2.78;;;2.30;99.90;;;;;;4957773;28;20047;-72
2024/03/26 02:20:39;;;;;;;4.35;2.60;;;2.30;99.90;;;;;;4957833;28;20035;-72
2024/03/26 02:23:05;;;;;;;5.20;2.60;;;2.20;99.90;;;;;;4972888;28;20089;-71
2024/03/26 02:25:30;;;;;;;4.00;3.00;;;2.20;99.90;;;;;;4953658;28;20028;-73
2024/03/26 02:27:56;;;;;;;2.65;2.30;;;2.20;99.90;;;;;;4960474;28;20031;-71
2024/03/26 02:30:21;;;;;;;3.95;2.50;;;2.20;99.90;;;;;;4961454;28;20028;-72
2024/03/26 02:32:47;;;;;;;2.45;2.25;;;2.10;99.90;;;;;;4956886;28;20138;-71
2024/03/26 02:35:12;;;;;;;2.45;2.13;;;2.10;99.90;;;;;;4957246;28;20035;-72
2024/03/26 02:37:38;;;;;;;4.57;3.45;;;2.10;99.90;;;;;;4958062;28;20030;-72
2024/03/26 02:40:05;;;;;;;3.67;2.50;;;2.00;99.90;;;;;;4959579;28;20039;-71
2024/03/26 02:42:30;;;;;;;3.08;2.35;;;1.90;99.90;;;;;;4961373;28;20502;-71
2024/03/26 02:44:56;;;;;;;5.80;3.13;;;2.00;99.90;;;;;;4956424;28;20031;-72
2024/03/26 02:47:21;;;;;;;2.45;2.25;;;1.90;99.90;;;;;;4957557;28;20031;-74
2024/03/26 02:49:47;;;;;;;4.70;3.10;;;1.90;99.90;;;;;;4956906;28;20117;-72
2024/03/26 02:52:13;;;;;;;3.22;2.88;;;1.90;99.90;;;;;;4958463;28;20024;-73
2024/03/26 02:54:38;;;;;;;6.80;2.80;;;1.90;99.90;;;;;;4958180;28;20035;-72
2024/03/26 02:57:04;;;;;;;3.00;2.42;;;1.80;99.90;;;;;;4959271;29;20032;-70
2024/03/26 02:59:29;;;;;;;4.35;2.58;;;1.80;99.90;;;;;;4950384;28;20396;-70
2024/03/26 03:01:55;;;;;;;3.08;2.30;;;1.80;99.90;;;;;;4951520;28;20077;-70
2024/03/26 03:04:21;;;;;;;3.05;2.75;;;1.80;99.90;;;;;;4950759;28;20054;-70
2024/03/26 03:06:47;;;;;;;2.20;2.00;;;1.60;99.90;;;;;;4951497;28;20031;-70
2024/03/26 03:09:12;;;;;;;4.20;2.60;;;1.40;99.90;;;;;;4951253;28;20112;-70
2024/03/26 03:11:39;;;;;;;3.33;2.15;;;1.30;99.90;;;;;;4954922;28;20340;-69
2024/03/26 03:14:04;;;;;;;7.93;4.30;;;1.30;99.90;;;;;;4949122;28;20775;-71
2024/03/26 03:16:30;;;;;;;34.38;12.20;;;1.40;99.90;;;;;;4952666;28;20035;-70
2024/03/26 03:18:56;;;;;;;23.90;10.23;;;1.40;99.90;;;;;;4951216;28;20063;-69
2024/03/26 03:21:22;;;;;;;15.82;6.03;;;1.40;99.90;;;;;;4948737;28;20083;-69
2024/03/26 03:23:48;;;;;;;70.72;31.33;;;1.40;99.90;;;;;;4949456;28;20031;-70
2024/03/26 03:26:13;;;;;;;95.90;39.20;;;1.40;99.90;;;;;;4950725;28;20027;-70
2024/03/26 03:28:39;;;;;;;54.08;21.52;;;1.40;99.90;;;;;;4948019;28;20011;-69
2024/03/26 03:31:05;;;;;;;5.75;3.70;;;1.40;99.90;;;;;;4947846;28;20043;-69
2024/03/26 03:33:31;;;;;;;6.68;4.20;;;1.30;99.90;;;;;;4952972;28;20539;-70
2024/03/26 03:35:56;;;;;;;3.58;2.28;;;1.20;99.90;;;;;;4950896;28;20035;-70
2024/03/26 03:38:22;;;;;;;3.05;2.75;;;1.10;99.90;;;;;;4947931;28;20023;-73
2024/03/26 03:40:49;;;;;;;5.63;3.00;;;1.10;99.90;;;;;;4965256;28;20058;-70
2024/03/26 03:43:15;;;;;;;4.30;3.63;;;1.00;99.90;;;;;;4963832;28;20047;-71
2024/03/26 03:45:41;;;;;;;7.32;6.03;;;1.00;99.90;;;;;;4956277;28;20039;-72
2024/03/26 03:48:08;;;;;;;3.35;2.33;;;0.90;99.90;;;;;;4948245;28;20041;-70
2024/03/26 03:50:34;;;;;;;3.22;2.58;;;0.90;99.90;;;;;;4949845;28;20093;-70
2024/03/26 03:53:00;;;;;;;2.65;2.38;;;0.80;99.90;;;;;;4952125;28;20617;-70
2024/03/26 03:55:25;;;;;;;4.65;3.05;;;0.60;99.90;;;;;;4949959;29;20215;-70
2024/03/26 03:57:51;;;;;;;2.70;2.45;;;0.60;99.90;;;;;;4952861;28;20467;-71
2024/03/26 04:00:17;;;;;;;2.20;1.90;;;0.50;99.90;;;;;;4948899;28;20039;-69
2024/03/26 04:02:42;;;;;;;2.20;1.95;;;0.50;99.90;;;;;;4948436;28;20055;-70
2024/03/26 04:05:08;;;;;;;3.03;2.72;;;0.50;99.90;;;;;;4952085;28;20045;-70
2024/03/26 04:07:34;;;;;;;2.47;2.28;;;0.50;99.90;;;;;;4953765;28;20035;-71
2024/03/26 04:10:00;;;;;;;2.95;2.72;;;0.60;99.90;;;;;;4955111;28;20031;-71
2024/03/26 04:12:25;;;;;;;2.70;2.42;;;0.60;99.90;;;;;;4958323;28;20042;-71
2024/03/26 04:14:51;;;;;;;2.97;2.33;;;0.60;99.90;;;;;;4959465;28;20051;-76
2024/03/26 04:17:17;;;;;;;2.97;2.55;;;0.60;99.90;;;;;;4960355;28;20070;-73
2024/03/26 04:19:43;;;;;;;6.53;2.90;;;0.50;99.90;;;;;;4958173;28;20039;-71
2024/03/26 04:22:09;;;;;;;3.97;2.88;;;0.40;99.90;;;;;;4956072;28;20047;-72
2024/03/26 04:24:34;;;;;;;5.57;3.50;;;0.40;99.90;;;;;;4958567;28;20027;-72
2024/03/26 04:27:01;;;;;;;3.35;3.03;;;0.50;99.90;;;;;;4957017;28;20032;-71
2024/03/26 04:29:27;;;;;;;1.75;1.27;;;0.50;99.90;;;;;;4951555;28;20039;-71
2024/03/26 04:31:53;;;;;;;3.38;2.65;;;0.40;99.90;;;;;;4953512;28;20111;-72
2024/03/26 04:34:18;;;;;;;2.70;2.50;;;0.40;99.90;;;;;;4954185;28;20038;-71
2024/03/26 04:36:44;;;;;;;4.90;3.30;;;0.30;99.90;;;;;;4951069;28;20709;-70
2024/03/26 04:39:09;;;;;;;5.72;3.80;;;0.30;99.90;;;;;;4952555;28;20067;-71
2024/03/26 04:41:35;;;;;;;3.33;2.70;;;0.30;99.90;;;;;;4961262;28;20479;-71
2024/03/26 04:44:01;;;;;;;7.25;3.38;;;0.40;99.90;;;;;;4954323;28;20019;-72
2024/03/26 04:46:27;;;;;;;3.38;2.70;;;0.40;99.90;;;;;;4953696;28;20110;-70
2024/03/26 04:48:53;;;;;;;5.47;3.58;;;0.40;99.90;;;;;;4952432;28;20031;-72
2024/03/26 04:51:18;;;;;;;1.13;1.05;;;0.30;99.90;;;;;;4958472;28;20043;-72
2024/03/26 04:53:44;;;;;;;6.53;3.45;;;0.10;99.90;;;;;;4968747;28;20023;-71
2024/03/26 04:56:10;;;;;;;3.55;2.03;;;0.10;99.90;;;;;;4955181;28;20031;-72
2024/03/26 04:58:35;;;;;;;3.33;2.72;;;0.20;99.90;;;;;;4953078;28;20641;-72
2024/03/26 05:01:01;;;;;;;3.22;2.55;;;0.20;99.90;;;;;;4952278;28;20074;-71
2024/03/26 05:03:26;;;;;;;3.40;3.10;;;0.20;99.90;;;;;;4958119;28;20476;-72
2024/03/26 05:05:52;;;;;;;4.13;3.42;;;0.20;99.90;;;;;;4956060;28;20424;-72
2024/03/26 05:08:18;;;;;;;3.63;3.17;;;0.30;99.90;;;;;;4952342;28;20047;-72
2024/03/26 05:10:44;;;;;;;5.13;3.42;;;0.30;99.90;;;;;;4958836;28;20155;-72
2024/03/26 05:13:10;;;;;;;3.72;2.92;;;0.40;99.90;;;;;;4961848;28;20031;-71
2024/03/26 05:15:36;;;;;;;5.32;3.58;;;0.40;99.90;;;;;;4954465;28;20039;-72
2024/03/26 05:18:01;;;;;;;2.70;2.40;;;0.30;99.90;;;;;;4955279;28;20047;-71
2024/03/26 05:20:27;;;;;;;2.15;1.70;;;0.00;99.90;;;;;;4949336;28;20035;-71
2024/03/26 05:22:53;;;;;;;2.60;2.40;;;-0.10;99.90;;;;;;4949698;28;20031;-70
2024/03/26 05:25:18;;;;;;;3.20;2.30;;;-0.30;99.90;;;;;;4951063;28;20035;-71
2024/03/26 05:27:44;;;;;;;4.72;3.13;;;-0.20;99.90;;;;;;4953820;28;20547;-70
2024/03/26 05:30:10;;;;;;;3.50;2.65;;;0.00;99.90;;;;;;4952930;28;20107;-72
2024/03/26 05:32:35;;;;;;;3.83;3.42;;;0.10;99.90;;;;;;4958912;28;20061;-71
2024/03/26 05:35:02;;;;;;;3.72;2.95;;;0.20;99.90;;;;;;4955225;28;20044;-71
2024/03/26 05:37:27;;;;;;;4.72;2.92;;;0.20;99.90;;;;;;4952651;28;20102;-71
2024/03/26 05:39:53;;;;;;;2.90;2.70;;;0.30;99.90;;;;;;4957395;28;20468;-71
2024/03/26 05:42:19;;;;;;;4.97;3.30;;;0.40;99.90;;;;;;4957214;28;20032;-71
2024/03/26 05:44:44;;;;;;;4.60;2.83;;;0.40;99.90;;;;;;4963445;28;20042;-72
2024/03/26 05:47:10;;;;;;;6.30;2.78;;;0.30;99.90;;;;;;4960113;28;20031;-72
2024/03/26 05:49:36;;;;;;;4.07;2.42;;;0.20;99.90;;;;;;4960059;28;20079;-76
2024/03/26 05:52:02;;;;;;;3.88;2.60;;;0.20;99.90;;;;;;4960220;28;20027;-73
2024/03/26 05:54:27;;;;;;;18.42;3.60;;;0.20;99.90;;;;;;4959422;28;20090;-71
2024/03/26 05:56:53;;;;;;;6.00;3.40;;;0.10;99.90;;;;;;4957629;28;20035;-72
2024/03/26 05:59:18;;;;;;;8.00;3.13;;;0.20;99.90;;;;;;4958415;28;20039;-71
2024/03/26 06:01:44;;;;;;;5.22;3.22;;;0.20;99.90;;;;;;4956523;28;20039;-71
2024/03/26 06:04:10;;;;;;;4.78;2.90;;;0.30;99.90;;;;;;4957582;28;20031;-70
2024/03/26 06:06:35;;;;;;;4.22;2.92;;;0.30;99.90;;;;;;4959397;28;20059;-71
2024/03/26 06:09:01;;;;;;;4.65;2.75;;;0.50;99.90;;;;;;4962007;28;20058;-72
2024/03/26 06:11:27;;;;;;;4.40;3.47;;;0.60;99.90;;;;;;4962344;28;20042;-71
2024/03/26 06:13:52;;;;;;;3.35;2.85;;;0.60;99.90;;;;;;4958350;28;20031;-72
2024/03/26 06:16:19;;;;;;;3.28;3.08;;;0.70;99.90;;;;;;4959994;28;20035;-71
2024/03/26 06:18:44;;;;;;;5.15;3.28;;;0.80;99.90;;;;;;4961615;28;20126;-70
2024/03/26 06:21:10;;;;;;;3.58;2.70;;;0.80;99.90;;;;;;4962592;28;20083;-72
2024/03/26 06:23:37;;;;;;;4.75;2.78;;;0.80;99.90;;;;;;4962119;28;20149;-71
2024/03/26 06:26:03;;;;;;;3.05;2.70;;;0.80;99.90;;;;;;4965655;28;20019;-70
2024/03/26 06:28:29;;;;;;;3.90;3.47;;;0.90;99.90;;;;;;4956676;28;20035;-70
2024/03/26 06:30:55;;;;;;;5.28;3.13;;;1.00;99.90;;;;;;4955403;28;20044;-70
2024/03/26 06:33:20;;;;;;;5.90;3.63;;;1.10;99.90;;;;;;4956842;28;20089;-71
2024/03/26 06:35:46;;;;;;;6.40;4.05;;;1.10;99.90;;;;;;4956866;28;20106;-71
2024/03/26 06:38:12;;;;;;;6.13;4.20;;;1.20;99.90;;;;;;4965063;28;20042;-79
2024/03/26 06:40:38;;;;;;;5.75;3.88;;;1.10;99.90;;;;;;4966718;28;20174;-76
2024/03/26 06:43:04;;;;;;;9.10;4.05;;;1.20;99.90;;;;;;4967398;28;20035;-78
2024/03/26 06:45:30;;;;;;;6.28;4.32;;;1.30;99.90;;;;;;4969068;28;20027;-75
2024/03/26 06:47:57;;;;;;;8.88;5.55;;;1.40;99.90;;;;;;4969452;28;20027;-76
2024/03/26 06:50:22;;;;;;;6.90;4.07;;;1.50;99.90;;;;;;4967625;28;20055;-76
2024/03/26 06:52:49;;;;;;;5.88;4.78;;;1.60;99.90;;;;;;4972533;28;20529;-76
2024/03/26 06:55:16;;;;;;;6.75;4.93;;;1.70;99.90;;;;;;4966975;28;20110;-77
2024/03/26 06:57:42;;;;;;;10.35;5.00;;;1.80;99.90;;;;;;4964351;29;20455;-75
2024/03/26 07:00:18;;;;;;;6.68;5.13;;;1.90;99.90;;;;;;4967710;28;20476;-76
2024/03/26 07:02:44;;;;;;;6.50;4.55;;;1.90;99.90;;;;;;4969042;28;20035;-76
2024/03/26 07:05:10;;;;;;;8.32;4.20;;;1.90;99.90;;;;;;4969511;28;20058;-76
2024/03/26 07:07:36;;;;;;;9.90;5.10;;;2.10;99.90;;;;;;4968715;28;20031;-76
2024/03/26 07:10:03;;;;;;;6.78;4.40;;;2.20;99.90;;;;;;4968233;28;20051;-77
2024/03/26 07:12:31;;;;;;;7.78;4.55;;;2.20;99.90;;;;;;4967283;28;20022;-77
2024/03/26 07:14:56;;;;;;;6.60;4.70;;;2.30;99.90;;;;;;4966944;28;20447;-76
2024/03/26 07:17:22;;;;;;;8.80;4.45;;;2.30;99.90;;;;;;4969469;28;20042;-76
2024/03/26 07:19:48;;;;;;;11.43;4.57;;;2.40;99.90;;;;;;4965017;29;20051;-76
2024/03/26 07:22:14;;;;;;;7.10;4.28;;;2.50;99.90;;;;;;4967665;28;20031;-77
2024/03/26 07:24:40;;;;;;;6.63;4.65;;;2.60;99.90;;;;;;4968277;28;20030;-78
2024/03/26 07:27:05;;;;;;;9.25;5.05;;;2.80;99.90;;;;;;4964184;28;20027;-78
2024/03/26 07:29:31;;;;;;;4.53;3.40;;;3.20;99.90;;;;;;4963509;28;20063;-78
2024/03/26 07:31:57;;;;;;;4.97;3.97;;;3.50;99.90;;;;;;4968350;28;20078;-77
2024/03/26 07:34:23;;;;;;;4.13;3.15;;;3.60;99.90;;;;;;4967656;28;20039;-77
2024/03/26 07:36:49;;;;;;;9.18;4.55;;;3.70;99.90;;;;;;4971636;28;20041;-77
2024/03/26 07:39:19;;;;;;;5.55;4.13;;;3.70;99.90;;;;;;4947758;28;20031;-70
2024/03/26 07:41:46;;;;;;;4.15;3.33;;;3.90;99.90;;;;;;4949526;28;20041;-70
2024/03/26 07:44:11;;;;;;;6.10;3.72;;;3.90;99.90;;;;;;4948710;28;20031;-70
2024/03/26 07:46:37;;;;;;;4.97;3.95;;;3.90;99.90;;;;;;4963674;28;20098;-70
2024/03/26 07:49:04;;;;;;;4.90;3.65;;;3.90;99.90;;;;;;4974719;28;20043;-85
2024/03/26 07:51:31;;;;;;;4.57;3.47;;;4.00;99.90;;;;;;4979041;28;20078;-83
2024/03/26 07:53:56;;;;;;;5.82;3.58;;;4.00;99.90;;;;;;4968811;28;20123;-83
2024/03/26 07:56:22;;;;;;;5.35;3.80;;;4.00;99.90;;;;;;4970175;28;20287;-83
2024/03/26 07:58:47;;;;;;;4.10;2.95;;;4.10;99.90;;;;;;4968864;28;20098;-84
2024/03/26 08:01:13;;;;;;;5.47;3.28;;;4.20;99.90;;;;;;4969804;28;20039;-83
2024/03/26 08:03:38;;;;;;;4.15;3.75;;;4.30;99.90;;;;;;4974696;28;20043;-83
2024/03/26 08:06:04;;;;;;;6.72;3.72;;;4.30;99.90;;;;;;4973423;28;20031;-85
2024/03/26 08:08:30;;;;;;;6.95;3.88;;;4.40;99.90;;;;;;4973362;28;20027;-85
2024/03/26 08:10:56;;;;;;;4.30;3.20;;;4.40;99.90;;;;;;4975388;28;20038;-85
2024/03/26 08:13:22;;;;;;;3.97;3.50;;;4.50;99.90;;;;;;4971933;28;20471;-86
2024/03/26 08:15:47;;;;;;;6.05;3.95;;;4.70;99.90;;;;;;4972016;28;20051;-86
2024/03/26 08:18:13;;;;;;;5.13;3.95;;;4.70;99.90;;;;;;4971345;28;20051;-86
2024/03/26 08:20:40;;;;;;;3.80;2.90;;;4.80;99.90;;;;;;4975306;28;20106;-86
2024/03/26 08:23:06;;;;;;;6.50;3.47;;;4.80;99.90;;;;;;4970240;28;20023;-87
2024/03/26 08:25:33;;;;;;;7.43;3.20;;;5.00;99.90;;;;;;4968102;29;20120;-86
2024/03/26 08:27:59;;;;;;;6.63;3.38;;;5.20;99.90;;;;;;4969073;28;20063;-87
2024/03/26 08:30:25;;;;;;;4.88;2.92;;;5.40;99.90;;;;;;4968091;28;20050;-87
2024/03/26 08:32:50;;;;;;;5.00;3.03;;;5.40;99.90;;;;;;4967120;28;20608;-86
2024/03/26 08:35:16;;;;;;;4.38;2.97;;;5.50;99.90;;;;;;4972443;28;20039;-87
2024/03/26 08:37:42;;;;;;;4.15;3.38;;;5.70;99.90;;;;;;4973395;28;20071;-87
2024/03/26 08:40:08;;;;;;;4.85;3.70;;;5.70;99.90;;;;;;4981778;23;20050;-34
2024/03/26 08:42:36;;;;;;;5.72;4.18;;;5.60;99.90;;;;;;4978964;28;20030;-33
2024/03/26 08:45:02;;;;;;;6.43;3.75;;;5.60;99.90;;;;;;4976415;28;20111;-30
2024/03/26 08:47:27;;;;;;;4.97;3.83;;;5.70;99.90;;;;;;4977472;28;20117;-36
2024/03/26 08:49:53;;;;;;;3.90;3.30;;;5.70;99.90;;;;;;4985717;28;20042;-32
2024/03/26 08:52:18;;;;;;;5.53;3.47;;;5.80;99.90;;;;;;4975639;28;20485;-35
2024/03/26 08:54:44;;;;;;;5.10;3.35;;;6.10;99.90;;;;;;4980858;28;20038;-37
2024/03/26 08:57:09;;;;;;;5.47;3.50;;;6.10;99.90;;;;;;4976218;28;21976;-34
2024/03/26 08:59:37;;;;;;;4.68;3.22;;;6.10;99.90;;;;;;4980878;28;20044;-33
2024/03/26 09:02:03;;;;;;;4.65;3.20;;;6.20;99.90;;;;;;4991040;28;20035;-32
2024/03/26 09:04:28;;;;;;;5.47;3.40;;;6.40;99.90;;;;;;4979723;28;20080;-32
2024/03/26 09:06:54;;;;;;;5.22;3.10;;;6.80;99.90;;;;;;4984975;28;20050;-36
2024/03/26 09:09:20;;;;;;;6.63;3.53;;;6.70;99.90;;;;;;4979973;28;20026;-39
2024/03/26 09:11:45;;;;;;;6.63;4.03;;;6.60;99.90;;;;;;4979111;28;20082;-36
2024/03/26 09:14:11;;;;;;;5.35;3.60;;;6.70;99.90;;;;;;4979876;28;20042;-40
2024/03/26 09:16:36;;;;;;;5.45;3.53;;;6.80;99.90;;;;;;4980716;28;20546;-37
2024/03/26 09:19:02;;;;;;;5.45;3.40;;;6.70;99.90;;;;;;4969010;28;20038;-34
2024/03/26 09:21:28;;;;;;;6.30;3.85;;;6.80;99.90;;;;;;4971125;28;20039;-33
2024/03/26 09:23:54;;;;;;;4.40;3.13;;;6.90;99.90;;;;;;4978054;28;20027;-32
2024/03/26 09:26:19;;;;;;;4.05;3.42;;;7.10;99.90;;;;;;4976539;28;20377;-33
2024/03/26 09:28:45;;;;;;;4.20;2.85;;;7.10;99.90;;;;;;4986621;28;20030;-34
2024/03/26 09:31:10;;;;;;;4.05;3.28;;;7.20;99.90;;;;;;4973575;28;20035;-35
2024/03/26 09:33:36;;;;;;;5.57;3.50;;;7.40;99.90;;;;;;4981049;28;20488;-38
2024/03/26 09:36:02;;;;;;;4.13;3.15;;;7.50;99.90;;;;;;4981413;28;20113;-32
2024/03/26 09:38:29;;;;;;;6.70;3.03;;;7.60;98.70;;;;;;4979771;28;20033;-38
2024/03/26 09:41:00;;;;;;;6.13;3.65;;;7.80;99.90;;;;;;4976576;28;20066;-32
2024/03/26 09:43:28;;;;;;;5.75;4.07;;;8.00;99.90;;;;;;4981740;28;20237;-35
2024/03/26 09:45:56;;;;;;;4.65;3.72;;;8.30;99.90;;;;;;4975610;28;20546;-37
2024/03/26 09:48:22;;;;;;;5.33;3.13;;;8.40;99.90;;;;;;4979155;28;20085;-32
2024/03/26 09:50:49;;;;;;;3.33;3.05;;;8.40;99.50;;;;;;4979881;28;20273;-32
2024/03/26 09:53:18;;;;;;;4.38;3.60;;;8.60;99.90;;;;;;4974720;28;20117;-32
2024/03/26 09:55:44;;;;;;;4.38;3.70;;;8.70;99.90;;;;;;4976628;28;20027;-32
2024/03/26 09:58:10;;;;;;;4.45;3.28;;;8.60;99.90;;;;;;4980649;28;20034;-34
2024/03/26 10:00:40;;;;;;;8.90;3.53;;;8.90;97.70;;;;;;4977454;28;20406;-33
2024/03/26 10:03:07;;;;;;;5.90;3.67;;;9.00;98.10;;;;;;4976077;28;20109;-36
2024/03/26 10:05:33;;;;;;;5.28;3.70;;;9.00;95.60;;;;;;4983490;28;20049;-32
2024/03/26 10:07:58;;;;;;;5.38;4.10;;;9.10;98.00;;;;;;4977231;28;20034;-38
2024/03/26 10:10:24;;;;;;;7.55;3.85;;;9.20;96.90;;;;;;4980036;28;20364;-35
2024/03/26 10:12:49;;;;;;;3.33;2.92;;;9.30;99.90;;;;;;4993365;28;20041;-35
2024/03/26 10:15:15;;;;;;;3.40;2.78;;;9.50;98.30;;;;;;4985395;28;20059;-32
2024/03/26 10:17:41;;;;;;;4.03;3.00;;;9.50;90.80;;;;;;4984698;28;20034;-32
2024/03/26 10:20:10;;;;;;;4.88;3.70;;;9.50;89.90;;;;;;4980586;28;20072;-37
2024/03/26 10:22:36;;;;;;;5.43;4.03;;;9.40;90.20;;;;;;4983447;28;20023;-35
2024/03/26 10:25:02;;;;;;;3.35;3.05;;;9.40;92.20;;;;;;4988585;28;20019;-32
2024/03/26 10:27:27;;;;;;;4.65;3.90;;;9.30;94.00;;;;;;4982971;28;20113;-33
2024/03/26 10:29:55;;;;;;;6.28;4.40;;;9.50;94.70;;;;;;4981548;28;20137;-41
2024/03/26 10:32:24;;;;;;;5.95;4.13;;;9.60;95.50;;;;;;4982231;28;20073;-40
2024/03/26 10:34:56;;;;;;;7.25;4.55;;;9.70;93.40;;;;;;4980222;28;20034;-40
2024/03/26 10:37:27;;;;;;;10.27;4.78;;;9.80;96.80;;;;;;4981866;28;20034;-37
2024/03/26 10:40:18;;;;;;;6.75;3.97;;;9.80;95.00;;;;;;4984200;28;20039;-42
2024/03/26 10:42:50;;;;;;;4.18;3.65;;;9.60;93.40;;;;;;4984550;28;20038;-39
2024/03/26 10:45:17;;;;;;;4.93;3.63;;;9.60;90.30;;;;;;4982056;28;20030;-42
2024/03/26 10:47:43;;;;;;;4.60;3.20;;;9.80;92.30;;;;;;4979604;28;20085;-40
2024/03/26 10:50:11;;;;;;;4.43;3.72;;;9.90;85.90;;;;;;4980913;28;20117;-42
2024/03/26 10:52:39;;;;;;;5.40;3.15;;;10.10;93.10;;;;;;4985704;28;20475;-42
2024/03/26 10:55:06;;;;;;;3.63;2.80;;;10.30;89.60;;;;;;4983587;28;20032;-40
2024/03/26 10:57:33;;;;;;;5.82;3.30;;;10.30;85.60;;;;;;4979460;28;20707;-41
2024/03/26 10:59:58;;;;;;;5.70;3.53;;;10.40;88.00;;;;;;4980531;28;20487;-42
2024/03/26 11:02:25;;;;;;;6.38;3.65;;;10.50;86.40;;;;;;4984055;28;20043;-41
2024/03/26 11:04:51;;;;;;;3.97;2.80;;;10.60;80.50;;;;;;4987154;28;20019;-41
2024/03/26 11:07:17;;;;;;;4.25;3.50;;;10.70;91.40;;;;;;4976242;28;20042;-41
2024/03/26 11:09:44;;;;;;;4.15;3.50;;;10.70;78.80;;;;;;4976698;28;20048;-41
2024/03/26 11:12:10;;;;;;;5.53;3.30;;;10.70;86.80;;;;;;4976475;28;20042;-41
2024/03/26 11:14:42;;;;;;;5.93;3.00;;;10.70;83.40;;;;;;4976822;28;20120;-39
2024/03/26 11:17:12;;;;;;;3.45;3.15;;;10.70;78.40;;;;;;4980156;28;20031;-42
2024/03/26 11:19:41;;;;;;;5.20;3.42;;;10.70;87.40;;;;;;4978565;28;20034;-38
2024/03/26 11:22:07;;;;;;;;;;;10.70;86.10;;;;;;4978534;28;20058;-35
2024/03/26 11:24:34;;;;;;;4.60;3.03;;;10.80;83.40;;;;;;4976556;28;20023;-36
2024/03/26 11:27:01;;;;;;;3.75;3.22;;;10.80;85.40;;;;;;4982146;28;20023;-37
2024/03/26 11:29:29;;;;;;;3.60;3.13;;;10.90;87.10;;;;;;4985433;28;20045;-41
2024/03/26 11:31:56;;;;;;;4.43;3.23;;;11.00;82.70;;;;;;4973415;28;20121;-42
2024/03/26 11:34:25;;;;;;;4.28;3.10;;;11.20;81.50;;;;;;4983663;28;20750;-40
2024/03/26 11:36:53;;;;;;;3.80;3.13;;;11.40;80.20;;;;;;4979599;28;20395;-42
2024/03/26 11:39:27;;;;;;;3.67;3.33;;;11.60;80.70;;;;;;4976147;28;20033;-41
2024/03/26 11:41:54;;;;;;;4.78;3.53;;;11.70;83.60;;;;;;4981319;28;20717;-36
2024/03/26 11:44:20;;;;;;;3.95;3.55;;;11.70;80.10;;;;;;4974888;28;22521;-37
2024/03/26 11:46:46;;;;;;;4.43;3.53;;;11.70;87.30;;;;;;4979958;28;20055;-36
2024/03/26 11:49:12;;;;;;;3.95;3.10;;;11.60;87.20;;;;;;4979007;28;20053;-41
2024/03/26 11:51:39;;;;;;;3.85;3.20;;;11.60;77.80;;;;;;4980047;28;20473;-41
2024/03/26 11:54:05;;;;;;;4.78;3.33;;;11.80;90.40;;;;;;4981074;28;20116;-41
2024/03/26 11:56:32;;;;;;;4.28;3.70;;;11.90;80.60;;;;;;4973943;28;20025;-41
2024/03/26 11:58:58;;;;;;;5.50;3.50;;;11.80;79.50;;;;;;4981555;28;20471;-34
2024/03/26 12:01:24;;;;;;;5.75;3.35;;;11.80;85.40;;;;;;4976887;28;20027;-32
2024/03/26 12:04:01;;;;;;;4.43;3.03;;;11.90;76.80;;;;;;4983660;28;20029;-32
2024/03/26 12:06:28;;;;;;;4.68;3.00;;;12.00;81.20;;;;;;4980700;28;20026;-34
2024/03/26 12:08:58;;;;;;;4.78;3.72;;;12.20;72.60;;;;;;4982372;28;20395;-32
2024/03/26 12:11:25;;;;;;;5.20;3.17;;;12.20;72.40;;;;;;4985584;28;20023;-32
2024/03/26 12:13:52;;;;;;;4.13;3.00;;;12.10;69.10;;;;;;4974745;28;20110;-33
2024/03/26 12:16:21;;;;;;;5.10;3.30;;;12.20;73.90;;;;;;4979445;28;20848;-31
2024/03/26 12:18:47;;;;;;;4.05;3.40;;;12.40;68.60;;;;;;4980301;28;20034;-32
2024/03/26 12:21:13;;;;;;;4.10;3.08;;;12.50;63.80;;;;;;4981119;28;20037;-33
2024/03/26 12:23:39;;;;;;;4.57;3.38;;;12.60;60.80;;;;;;4975965;28;20105;-37
2024/03/26 12:26:04;;;;;;;4.47;3.33;;;12.60;65.40;;;;;;4983456;28;20554;-37
2024/03/26 12:28:31;;;;;;;3.47;3.15;;;12.50;61.80;;;;;;4981799;28;20020;-34
2024/03/26 12:30:56;;;;;;;4.05;3.30;;;12.40;61.40;;;;;;4983337;28;20110;-34
2024/03/26 12:33:22;;;;;;;4.95;2.70;;;12.60;57.80;;;;;;4972967;28;20129;-32
2024/03/26 12:35:47;;;;;;;4.88;2.83;;;12.70;54.80;;;;;;4982442;28;20026;-32
2024/03/26 12:38:13;;;;;;;5.40;3.15;;;13.00;65.60;;;;;;4984558;28;20034;-32
2024/03/26 12:40:38;;;;;;;4.38;2.85;;;13.30;65.30;;;;;;4978105;28;20444;-33
2024/03/26 12:43:04;;;;;;;3.60;2.90;;;13.40;59.10;;;;;;4985103;28;20030;-32
2024/03/26 12:45:30;;;;;;;3.25;2.65;;;13.40;58.90;;;;;;4977636;28;20388;-34
2024/03/26 12:47:55;;;;;;;4.35;3.13;;;13.50;57.70;;;;;;4979592;28;20467;-34
2024/03/26 12:50:21;;;;;;;3.80;2.83;;;13.70;72.50;;;;;;4995560;28;20469;-39